createdAt,value
2023-04-17T00:00:06.807Z,94937.00
2023-04-17T00:01:06.884Z,94935.00
2023-04-17T00:02:06.937Z,94933.00
2023-04-17T00:03:07.194Z,94935.00
2023-04-17T00:04:07.187Z,94937.00
2023-04-17T00:05:07.264Z,94935.00
2023-04-17T00:06:07.151Z,94933.00
2023-04-17T00:07:07.099Z,94933.00
2023-04-17T00:08:07.111Z,94933.00
2023-04-17T00:09:07.134Z,94937.00
2023-04-17T00:10:07.206Z,94933.00
2023-04-17T00:11:08.836Z,94933.00
2023-04-17T00:12:07.231Z,94933.00
2023-04-17T00:13:07.252Z,94931.00
2023-04-17T00:14:07.282Z,94931.00
2023-04-17T00:15:07.327Z,94929.00
2023-04-17T00:16:07.361Z,94931.00
2023-04-17T00:17:07.451Z,94927.00
2023-04-17T00:18:07.559Z,94931.00
2023-04-17T00:19:07.513Z,94925.00
2023-04-17T00:20:07.539Z,94925.00
2023-04-17T00:21:07.597Z,94925.00
2023-04-17T00:22:07.620Z,94927.00
2023-04-17T00:23:07.640Z,94927.00
2023-04-17T00:24:07.722Z,94927.00
2023-04-17T00:25:07.789Z,94929.00
2023-04-17T00:26:07.805Z,94929.00
2023-04-17T00:27:07.877Z,94925.00
2023-04-17T00:28:07.958Z,94925.00
2023-04-17T00:29:07.923Z,94923.00
2023-04-17T00:30:07.971Z,94925.00
2023-04-17T00:31:07.981Z,94925.00
2023-04-17T00:32:08.084Z,94927.00
2023-04-17T00:33:08.120Z,94923.00
2023-04-17T00:34:08.040Z,94923.00
2023-04-17T00:35:08.116Z,94927.00
2023-04-17T00:36:08.185Z,94927.00
2023-04-17T00:37:08.215Z,94925.00
2023-04-17T00:38:08.271Z,94925.00
2023-04-17T00:39:08.291Z,94925.00
2023-04-17T00:40:08.356Z,94923.00
2023-04-17T00:41:08.359Z,94923.00
2023-04-17T00:42:08.406Z,94923.00
2023-04-17T00:43:08.403Z,94925.00
2023-04-17T00:44:10.281Z,94927.00
2023-04-17T00:45:08.505Z,94925.00
2023-04-17T00:46:08.522Z,94929.00
2023-04-17T00:47:08.609Z,94925.00
2023-04-17T00:48:08.610Z,94925.00
2023-04-17T00:49:08.744Z,94923.00
2023-04-17T00:50:08.703Z,94925.00
2023-04-17T00:51:08.756Z,94925.00
2023-04-17T00:52:08.792Z,94923.00
2023-04-17T00:53:08.876Z,94921.00
2023-04-17T00:54:08.869Z,94923.00
2023-04-17T00:55:08.892Z,94921.00
2023-04-17T00:56:08.929Z,94921.00
2023-04-17T00:57:08.874Z,94921.00
2023-04-17T00:58:08.940Z,94919.00
2023-04-17T00:59:08.974Z,94919.00
2023-04-17T01:00:09.018Z,94921.00
2023-04-17T01:01:09.274Z,94919.00
2023-04-17T01:02:09.095Z,94915.00
2023-04-17T01:03:09.259Z,94915.00
2023-04-17T01:04:09.204Z,94917.00
2023-04-17T01:05:09.194Z,94915.00
2023-04-17T01:06:09.253Z,94913.00
2023-04-17T01:07:09.252Z,94917.00
2023-04-17T01:08:09.326Z,94921.00
2023-04-17T01:09:09.449Z,94919.00
2023-04-17T01:10:09.360Z,94917.00
2023-04-17T01:11:09.398Z,94917.00
2023-04-17T01:12:09.400Z,94917.00
2023-04-17T01:13:09.451Z,94913.00
2023-04-17T01:14:09.477Z,94915.00
2023-04-17T01:15:09.537Z,94915.00
2023-04-17T01:16:09.539Z,94915.00
2023-04-17T01:17:09.586Z,94917.00
2023-04-17T01:18:09.597Z,94919.00
2023-04-17T01:19:09.775Z,94917.00
2023-04-17T01:20:10.336Z,94921.00
2023-04-17T01:21:09.732Z,94919.00
2023-04-17T01:22:09.805Z,94923.00
2023-04-17T01:23:09.810Z,94923.00
2023-04-17T01:24:09.987Z,94923.00
2023-04-17T01:25:09.906Z,94923.00
2023-04-17T01:26:10.052Z,94921.00
2023-04-17T01:27:10.002Z,94925.00
2023-04-17T01:28:10.055Z,94925.00
2023-04-17T01:29:10.267Z,94925.00
2023-04-17T01:30:10.141Z,94923.00
2023-04-17T01:31:10.227Z,94923.00
2023-04-17T01:32:10.256Z,94923.00
2023-04-17T01:33:11.229Z,94925.00
2023-04-17T01:34:10.271Z,94921.00
2023-04-17T01:35:10.305Z,94923.00
2023-04-17T01:36:10.345Z,94921.00
2023-04-17T01:37:10.340Z,94923.00
2023-04-17T01:38:10.344Z,94925.00
2023-04-17T01:39:10.641Z,94925.00
2023-04-17T01:40:10.527Z,94923.00
2023-04-17T01:41:10.514Z,94923.00
2023-04-17T01:42:10.567Z,94921.00
2023-04-17T01:43:10.595Z,94921.00
2023-04-17T01:44:10.676Z,94919.00
2023-04-17T01:45:10.768Z,94917.00
2023-04-17T01:46:10.737Z,94917.00
2023-04-17T01:47:10.793Z,94919.00
2023-04-17T01:48:10.793Z,94919.00
2023-04-17T01:49:10.976Z,94919.00
2023-04-17T01:50:10.884Z,94919.00
2023-04-17T01:51:10.930Z,94919.00
2023-04-17T01:52:10.972Z,94923.00
2023-04-17T01:53:10.982Z,94921.00
2023-04-17T01:54:11.000Z,94917.00
2023-04-17T01:55:11.047Z,94921.00
2023-04-17T01:56:11.250Z,94923.00
2023-04-17T01:57:11.101Z,94919.00
2023-04-17T01:58:11.128Z,94921.00
2023-04-17T01:59:11.334Z,94925.00
2023-04-17T02:00:11.171Z,94919.00
2023-04-17T02:01:11.253Z,94919.00
2023-04-17T02:02:11.451Z,94919.00
2023-04-17T02:03:11.428Z,94919.00
2023-04-17T02:04:11.486Z,94919.00
2023-04-17T02:05:11.420Z,94915.00
2023-04-17T02:06:11.426Z,94917.00
2023-04-17T02:07:11.490Z,94917.00
2023-04-17T02:08:11.520Z,94915.00
2023-04-17T02:09:11.757Z,94915.00
2023-04-17T02:10:11.602Z,94917.00
2023-04-17T02:11:11.626Z,94917.00
2023-04-17T02:12:11.691Z,94919.00
2023-04-17T02:13:11.706Z,94917.00
2023-04-17T02:14:11.737Z,94921.00
2023-04-17T02:15:11.833Z,94919.00
2023-04-17T02:16:11.889Z,94919.00
2023-04-17T02:17:11.897Z,94919.00
2023-04-17T02:18:11.954Z,94919.00
2023-04-17T02:19:12.161Z,94921.00
2023-04-17T02:20:12.103Z,94917.00
2023-04-17T02:21:12.221Z,94921.00
2023-04-17T02:22:12.194Z,94923.00
2023-04-17T02:23:12.212Z,94921.00
2023-04-17T02:24:12.229Z,94921.00
2023-04-17T02:25:12.300Z,94925.00
2023-04-17T02:26:12.343Z,94927.00
2023-04-17T02:27:12.372Z,94925.00
2023-04-17T02:28:12.417Z,94923.00
2023-04-17T02:29:12.655Z,94921.00
2023-04-17T02:30:12.438Z,94923.00
2023-04-17T02:31:12.527Z,94925.00
2023-04-17T02:32:12.532Z,94927.00
2023-04-17T02:33:12.548Z,94927.00
2023-04-17T02:34:12.566Z,94923.00
2023-04-17T02:35:12.584Z,94925.00
2023-04-17T02:36:12.660Z,94929.00
2023-04-17T02:37:12.677Z,94929.00
2023-04-17T02:38:12.691Z,94927.00
2023-04-17T02:39:12.886Z,94929.00
2023-04-17T02:40:12.777Z,94929.00
2023-04-17T02:41:12.804Z,94929.00
2023-04-17T02:42:12.828Z,94931.00
2023-04-17T02:43:12.886Z,94929.00
2023-04-17T02:44:12.903Z,94927.00
2023-04-17T02:45:12.980Z,94927.00
2023-04-17T02:46:13.023Z,94929.00
2023-04-17T02:47:13.013Z,94927.00
2023-04-17T02:48:13.028Z,94929.00
2023-04-17T02:49:13.266Z,94929.00
2023-04-17T02:50:13.110Z,94925.00
2023-04-17T02:51:13.161Z,94925.00
2023-04-17T02:52:13.163Z,94925.00
2023-04-17T02:53:13.225Z,94925.00
2023-04-17T02:54:13.254Z,94925.00
2023-04-17T02:55:13.381Z,94923.00
2023-04-17T02:56:13.333Z,94925.00
2023-04-17T02:57:13.408Z,94923.00
2023-04-17T02:58:13.435Z,94923.00
2023-04-17T02:59:13.485Z,94923.00
2023-04-17T03:00:13.513Z,94919.00
2023-04-17T03:01:13.645Z,94917.00
2023-04-17T03:02:13.658Z,94919.00
2023-04-17T03:03:13.633Z,94915.00
2023-04-17T03:04:13.583Z,94917.00
2023-04-17T03:05:13.555Z,94917.00
2023-04-17T03:06:13.621Z,94913.00
2023-04-17T03:07:13.661Z,94913.00
2023-04-17T03:08:13.662Z,94915.00
2023-04-17T03:09:13.886Z,94913.00
2023-04-17T03:10:13.765Z,94915.00
2023-04-17T03:11:13.886Z,94913.00
2023-04-17T03:12:13.941Z,94919.00
2023-04-17T03:13:14.018Z,94915.00
2023-04-17T03:14:14.037Z,94913.00
2023-04-17T03:15:14.073Z,94919.00
2023-04-17T03:16:14.160Z,94917.00
2023-04-17T03:17:14.192Z,94917.00
2023-04-17T03:18:14.213Z,94917.00
2023-04-17T03:19:14.275Z,94917.00
2023-04-17T03:20:14.412Z,94919.00
2023-04-17T03:21:14.416Z,94917.00
2023-04-17T03:22:14.430Z,94919.00
2023-04-17T03:23:14.470Z,94919.00
2023-04-17T03:24:14.475Z,94915.00
2023-04-17T03:25:14.543Z,94915.00
2023-04-17T03:26:14.559Z,94915.00
2023-04-17T03:27:14.590Z,94919.00
2023-04-17T03:28:14.599Z,94915.00
2023-04-17T03:29:14.625Z,94915.00
2023-04-17T03:30:14.579Z,94921.00
2023-04-17T03:31:14.659Z,94921.00
2023-04-17T03:32:14.677Z,94921.00
2023-04-17T03:33:14.699Z,94919.00
2023-04-17T03:34:14.713Z,94925.00
2023-04-17T03:35:14.745Z,94923.00
2023-04-17T03:36:14.799Z,94925.00
2023-04-17T03:37:14.764Z,94923.00
2023-04-17T03:38:14.834Z,94925.00
2023-04-17T03:39:14.860Z,94927.00
2023-04-17T03:40:14.869Z,94927.00
2023-04-17T03:41:14.942Z,94927.00
2023-04-17T03:42:14.972Z,94929.00
2023-04-17T03:43:14.990Z,94931.00
2023-04-17T03:44:15.056Z,94931.00
2023-04-17T03:45:15.077Z,94931.00
2023-04-17T03:46:15.105Z,94933.00
2023-04-17T03:47:15.156Z,94931.00
2023-04-17T03:48:15.123Z,94933.00
2023-04-17T03:49:15.201Z,94935.00
2023-04-17T03:50:15.164Z,94931.00
2023-04-17T03:51:15.184Z,94929.00
2023-04-17T03:52:15.209Z,94931.00
2023-04-17T03:53:15.276Z,94929.00
2023-04-17T03:54:15.349Z,94933.00
2023-04-17T03:55:15.361Z,94931.00
2023-04-17T03:56:15.796Z,94933.00
2023-04-17T03:57:15.450Z,94933.00
2023-04-17T03:58:15.515Z,94937.00
2023-04-17T03:59:15.530Z,94939.00
2023-04-17T04:00:15.564Z,94935.00
2023-04-17T04:01:15.591Z,94940.00
2023-04-17T04:02:15.719Z,94939.00
2023-04-17T04:03:15.769Z,94940.00
2023-04-17T04:04:15.907Z,94944.00
2023-04-17T04:05:15.759Z,94942.00
2023-04-17T04:06:15.718Z,94944.00
2023-04-17T04:07:15.731Z,94942.00
2023-04-17T04:08:15.747Z,94948.00
2023-04-17T04:09:15.827Z,94946.00
2023-04-17T04:10:15.842Z,94948.00
2023-04-17T04:11:15.908Z,94946.00
2023-04-17T04:12:16.228Z,94950.00
2023-04-17T04:13:15.945Z,94948.00
2023-04-17T04:14:15.966Z,94950.00
2023-04-17T04:15:15.984Z,94950.00
2023-04-17T04:16:16.050Z,94946.00
2023-04-17T04:17:16.033Z,94948.00
2023-04-17T04:18:16.088Z,94950.00
2023-04-17T04:19:16.769Z,94948.00
2023-04-17T04:20:16.085Z,94946.00
2023-04-17T04:21:16.095Z,94948.00
2023-04-17T04:22:16.059Z,94946.00
2023-04-17T04:23:16.080Z,94946.00
2023-04-17T04:24:16.103Z,94946.00
2023-04-17T04:25:16.221Z,94950.00
2023-04-17T04:26:16.243Z,94948.00
2023-04-17T04:27:17.775Z,94946.00
2023-04-17T04:28:16.220Z,94950.00
2023-04-17T04:29:16.301Z,94946.00
2023-04-17T04:30:16.315Z,94948.00
2023-04-17T04:31:16.342Z,94948.00
2023-04-17T04:32:17.310Z,94944.00
2023-04-17T04:33:16.366Z,94946.00
2023-04-17T04:34:16.397Z,94946.00
2023-04-17T04:35:16.413Z,94946.00
2023-04-17T04:36:16.379Z,94948.00
2023-04-17T04:37:16.405Z,94948.00
2023-04-17T04:38:16.474Z,94952.00
2023-04-17T04:39:16.539Z,94952.00
2023-04-17T04:40:16.551Z,94948.00
2023-04-17T04:41:16.513Z,94950.00
2023-04-17T04:42:16.536Z,94948.00
2023-04-17T04:43:16.609Z,94950.00
2023-04-17T04:44:16.572Z,94948.00
2023-04-17T04:45:16.699Z,94948.00
2023-04-17T04:46:16.697Z,94944.00
2023-04-17T04:47:16.687Z,94946.00
2023-04-17T04:48:16.644Z,94946.00
2023-04-17T04:49:16.721Z,94946.00
2023-04-17T04:50:16.792Z,94950.00
2023-04-17T04:51:16.808Z,94950.00
2023-04-17T04:52:17.795Z,94950.00
2023-04-17T04:53:16.794Z,94952.00
2023-04-17T04:54:16.864Z,94954.00
2023-04-17T04:55:16.829Z,94956.00
2023-04-17T04:56:16.894Z,94954.00
2023-04-17T04:57:17.010Z,94958.00
2023-04-17T04:58:16.930Z,94958.00
2023-04-17T04:59:16.964Z,94958.00
2023-04-17T05:00:16.979Z,94960.00
2023-04-17T05:01:17.057Z,94958.00
2023-04-17T05:02:17.085Z,94962.00
2023-04-17T05:03:17.407Z,94962.00
2023-04-17T05:04:17.293Z,94960.00
2023-04-17T05:05:17.135Z,94960.00
2023-04-17T05:06:17.146Z,94960.00
2023-04-17T05:07:17.165Z,94958.00
2023-04-17T05:08:17.299Z,94958.00
2023-04-17T05:09:17.561Z,94960.00
2023-04-17T05:10:17.317Z,94958.00
2023-04-17T05:11:17.343Z,94962.00
2023-04-17T05:12:17.426Z,94960.00
2023-04-17T05:13:18.295Z,94962.00
2023-04-17T05:14:17.446Z,94962.00
2023-04-17T05:15:17.512Z,94962.00
2023-04-17T05:16:17.499Z,94962.00
2023-04-17T05:17:17.532Z,94962.00
2023-04-17T05:18:18.333Z,94962.00
2023-04-17T05:19:17.551Z,94964.00
2023-04-17T05:20:17.568Z,94962.00
2023-04-17T05:21:17.640Z,94962.00
2023-04-17T05:22:17.585Z,94964.00
2023-04-17T05:23:17.595Z,94962.00
2023-04-17T05:24:17.803Z,94962.00
2023-04-17T05:25:17.665Z,94962.00
2023-04-17T05:26:17.719Z,94964.00
2023-04-17T05:27:17.730Z,94966.00
2023-04-17T05:28:17.805Z,94966.00
2023-04-17T05:29:17.811Z,94964.00
2023-04-17T05:30:17.856Z,94964.00
2023-04-17T05:31:19.770Z,94970.00
2023-04-17T05:32:18.089Z,94970.00
2023-04-17T05:33:18.782Z,94972.00
2023-04-17T05:34:18.140Z,94970.00
2023-04-17T05:35:18.030Z,94974.00
2023-04-17T05:36:18.075Z,94972.00
2023-04-17T05:37:18.756Z,94972.00
2023-04-17T05:38:18.270Z,94972.00
2023-04-17T05:39:18.239Z,94972.00
2023-04-17T05:40:18.141Z,94970.00
2023-04-17T05:41:18.193Z,94972.00
2023-04-17T05:42:18.265Z,94972.00
2023-04-17T05:43:18.348Z,94974.00
2023-04-17T05:44:18.213Z,94974.00
2023-04-17T05:45:18.851Z,94974.00
2023-04-17T05:46:18.304Z,94976.00
2023-04-17T05:47:18.386Z,94976.00
2023-04-17T05:48:18.795Z,94976.00
2023-04-17T05:49:18.319Z,94972.00
2023-04-17T05:50:18.328Z,94972.00
2023-04-17T05:51:18.437Z,94970.00
2023-04-17T05:52:19.285Z,94970.00
2023-04-17T05:53:18.763Z,94972.00
2023-04-17T05:54:18.355Z,94972.00
2023-04-17T05:55:18.369Z,94970.00
2023-04-17T05:56:18.429Z,94976.00
2023-04-17T05:57:18.431Z,94976.00
2023-04-17T05:58:23.888Z,94978.00
2023-04-17T05:59:19.472Z,94980.00
2023-04-17T06:00:18.512Z,94978.00
2023-04-17T06:01:18.772Z,94982.00
2023-04-17T06:02:18.523Z,94982.00
2023-04-17T06:03:19.040Z,94982.00
2023-04-17T06:04:18.876Z,94980.00
2023-04-17T06:05:18.683Z,94982.00
2023-04-17T06:06:18.408Z,94982.00
2023-04-17T06:07:18.386Z,94982.00
2023-04-17T06:08:18.388Z,94978.00
2023-04-17T06:09:18.406Z,94980.00
2023-04-17T06:10:18.388Z,94982.00
2023-04-17T06:11:19.281Z,94980.00
2023-04-17T06:12:18.349Z,94982.00
2023-04-17T06:13:18.393Z,94980.00
2023-04-17T06:14:18.332Z,94982.00
2023-04-17T06:15:18.368Z,94982.00
2023-04-17T06:16:18.558Z,94984.00
2023-04-17T06:17:18.687Z,94987.00
2023-04-17T06:18:18.576Z,94986.00
2023-04-17T06:19:18.605Z,94987.00
2023-04-17T06:20:18.626Z,94991.00
2023-04-17T06:21:19.302Z,94993.00
2023-04-17T06:22:18.764Z,94991.00
2023-04-17T06:23:19.803Z,94993.00
2023-04-17T06:24:18.873Z,94993.00
2023-04-17T06:25:18.918Z,94997.00
2023-04-17T06:26:18.990Z,94993.00
2023-04-17T06:27:19.022Z,94995.00
2023-04-17T06:28:19.035Z,94997.00
2023-04-17T06:29:19.103Z,94995.00
2023-04-17T06:30:19.209Z,94995.00
2023-04-17T06:31:19.248Z,94995.00
2023-04-17T06:32:19.273Z,94995.00
2023-04-17T06:33:19.337Z,94999.00
2023-04-17T06:34:19.355Z,94999.00
2023-04-17T06:35:19.544Z,95001.00
2023-04-17T06:36:19.474Z,95003.00
2023-04-17T06:37:19.530Z,95001.00
2023-04-17T06:38:19.595Z,95003.00
2023-04-17T06:39:19.621Z,95003.00
2023-04-17T06:40:19.750Z,95005.00
2023-04-17T06:41:19.685Z,94999.00
2023-04-17T06:42:19.873Z,95003.00
2023-04-17T06:43:19.711Z,95001.00
2023-04-17T06:44:19.729Z,95001.00
2023-04-17T06:45:19.800Z,95007.00
2023-04-17T06:46:19.883Z,95005.00
2023-04-17T06:47:19.889Z,95007.00
2023-04-17T06:48:19.938Z,95009.00
2023-04-17T06:49:19.969Z,95003.00
2023-04-17T06:50:19.943Z,95003.00
2023-04-17T06:51:20.766Z,95001.00
2023-04-17T06:52:21.113Z,95003.00
2023-04-17T06:53:20.801Z,95003.00
2023-04-17T06:54:20.062Z,95005.00
2023-04-17T06:55:20.093Z,95003.00
2023-04-17T06:56:20.103Z,95009.00
2023-04-17T06:57:20.848Z,95007.00
2023-04-17T06:58:20.145Z,95009.00
2023-04-17T06:59:20.208Z,95009.00
2023-04-17T07:00:20.300Z,95005.00
2023-04-17T07:01:20.332Z,95005.00
2023-04-17T07:02:20.679Z,95005.00
2023-04-17T07:03:20.543Z,95007.00
2023-04-17T07:04:20.551Z,95011.00
2023-04-17T07:05:21.324Z,95007.00
2023-04-17T07:06:20.372Z,95007.00
2023-04-17T07:07:20.356Z,95007.00
2023-04-17T07:08:21.300Z,95015.00
2023-04-17T07:09:20.556Z,95015.00
2023-04-17T07:10:20.422Z,95015.00
2023-04-17T07:11:20.580Z,95015.00
2023-04-17T07:12:20.593Z,95015.00
2023-04-17T07:13:20.457Z,95015.00
2023-04-17T07:14:20.553Z,95013.00
2023-04-17T07:15:21.728Z,95015.00
2023-04-17T07:16:20.523Z,95015.00
2023-04-17T07:17:21.309Z,95013.00
2023-04-17T07:18:20.570Z,95013.00
2023-04-17T07:19:20.682Z,95017.00
2023-04-17T07:20:21.394Z,95015.00
2023-04-17T07:21:20.668Z,95013.00
2023-04-17T07:22:20.680Z,95017.00
2023-04-17T07:23:20.710Z,95015.00
2023-04-17T07:24:20.809Z,95017.00
2023-04-17T07:25:20.953Z,95015.00
2023-04-17T07:26:20.925Z,95013.00
2023-04-17T07:27:21.000Z,95015.00
2023-04-17T07:28:20.970Z,95015.00
2023-04-17T07:29:21.341Z,95013.00
2023-04-17T07:30:20.989Z,95015.00
2023-04-17T07:31:21.142Z,95017.00
2023-04-17T07:32:21.135Z,95015.00
2023-04-17T07:33:21.112Z,95015.00
2023-04-17T07:34:21.165Z,95013.00
2023-04-17T07:35:21.794Z,95015.00
2023-04-17T07:36:21.256Z,95015.00
2023-04-17T07:37:21.785Z,95017.00
2023-04-17T07:38:21.289Z,95017.00
2023-04-17T07:39:21.334Z,95019.00
2023-04-17T07:40:22.345Z,95019.00
2023-04-17T07:41:21.455Z,95019.00
2023-04-17T07:42:21.426Z,95017.00
2023-04-17T07:43:22.301Z,95019.00
2023-04-17T07:44:22.311Z,95017.00
2023-04-17T07:45:21.777Z,95017.00
2023-04-17T07:46:21.671Z,95017.00
2023-04-17T07:47:21.997Z,95017.00
2023-04-17T07:48:21.583Z,95017.00
2023-04-17T07:49:22.361Z,95015.00
2023-04-17T07:50:21.721Z,95019.00
2023-04-17T07:51:21.746Z,95013.00
2023-04-17T07:52:21.751Z,95011.00
2023-04-17T07:53:22.013Z,95013.00
2023-04-17T07:54:21.996Z,95015.00
2023-04-17T07:55:21.821Z,95011.00
2023-04-17T07:56:21.798Z,95009.00
2023-04-17T07:57:21.904Z,95007.00
2023-04-17T07:58:22.841Z,95013.00
2023-04-17T07:59:21.956Z,95011.00
2023-04-17T08:00:21.972Z,95009.00
2023-04-17T08:01:22.037Z,95011.00
2023-04-17T08:02:22.985Z,95009.00
2023-04-17T08:03:22.344Z,95009.00
2023-04-17T08:04:22.238Z,95011.00
2023-04-17T08:05:22.394Z,95009.00
2023-04-17T08:06:23.825Z,95007.00
2023-04-17T08:07:22.294Z,95007.00
2023-04-17T08:08:22.320Z,95005.00
2023-04-17T08:09:22.352Z,95007.00
2023-04-17T08:10:22.266Z,95007.00
2023-04-17T08:11:22.228Z,95007.00
2023-04-17T08:12:22.353Z,95005.00
2023-04-17T08:13:22.396Z,95007.00
2023-04-17T08:14:22.841Z,95007.00
2023-04-17T08:15:22.292Z,95009.00
2023-04-17T08:16:22.399Z,95009.00
2023-04-17T08:17:22.438Z,95007.00
2023-04-17T08:18:22.484Z,95005.00
2023-04-17T08:19:22.848Z,95003.00
2023-04-17T08:20:22.620Z,95005.00
2023-04-17T08:21:22.622Z,95001.00
2023-04-17T08:22:22.993Z,95003.00
2023-04-17T08:23:22.607Z,95001.00
2023-04-17T08:24:22.692Z,95001.00
2023-04-17T08:25:22.689Z,95001.00
2023-04-17T08:26:22.630Z,95001.00
2023-04-17T08:27:22.666Z,95001.00
2023-04-17T08:28:22.687Z,95001.00
2023-04-17T08:29:22.666Z,95001.00
2023-04-17T08:30:22.878Z,94997.00
2023-04-17T08:31:23.471Z,94997.00
2023-04-17T08:32:22.882Z,94997.00
2023-04-17T08:33:23.802Z,94995.00
2023-04-17T08:34:23.318Z,94993.00
2023-04-17T08:35:23.807Z,94993.00
2023-04-17T08:36:23.002Z,94991.00
2023-04-17T08:37:23.327Z,94995.00
2023-04-17T08:38:23.950Z,94995.00
2023-04-17T08:39:23.303Z,94993.00
2023-04-17T08:40:23.303Z,94991.00
2023-04-17T08:41:23.289Z,94991.00
2023-04-17T08:42:23.225Z,94995.00
2023-04-17T08:43:23.278Z,94991.00
2023-04-17T08:44:23.360Z,94989.00
2023-04-17T08:45:23.368Z,94987.00
2023-04-17T08:46:24.342Z,94991.00
2023-04-17T08:47:23.893Z,94991.00
2023-04-17T08:48:23.507Z,94989.00
2023-04-17T08:49:23.579Z,94987.00
2023-04-17T08:50:23.615Z,94991.00
2023-04-17T08:51:24.674Z,94987.00
2023-04-17T08:52:23.804Z,94987.00
2023-04-17T08:53:23.636Z,94984.00
2023-04-17T08:54:23.635Z,94984.00
2023-04-17T08:55:23.695Z,94982.00
2023-04-17T08:56:23.752Z,94980.00
2023-04-17T08:57:23.924Z,94980.00
2023-04-17T08:58:23.775Z,94978.00
2023-04-17T08:59:23.833Z,94978.00
2023-04-17T09:00:23.939Z,94980.00
2023-04-17T09:01:24.836Z,94976.00
2023-04-17T09:02:26.868Z,94972.00
2023-04-17T09:03:23.939Z,94968.00
2023-04-17T09:04:23.987Z,94972.00
2023-04-17T09:05:23.874Z,94970.00
2023-04-17T09:06:23.941Z,94970.00
2023-04-17T09:07:23.832Z,94970.00
2023-04-17T09:08:23.842Z,94970.00
2023-04-17T09:09:23.840Z,94970.00
2023-04-17T09:10:23.835Z,94968.00
2023-04-17T09:11:23.824Z,94966.00
2023-04-17T09:12:23.815Z,94966.00
2023-04-17T09:13:23.879Z,94966.00
2023-04-17T09:14:25.576Z,94960.00
2023-04-17T09:15:23.840Z,94960.00
2023-04-17T09:16:23.879Z,94960.00
2023-04-17T09:17:23.779Z,94960.00
2023-04-17T09:18:23.796Z,94958.00
2023-04-17T09:19:23.759Z,94964.00
2023-04-17T09:20:23.723Z,94966.00
2023-04-17T09:21:23.717Z,94962.00
2023-04-17T09:22:23.736Z,94962.00
2023-04-17T09:23:23.697Z,94960.00
2023-04-17T09:24:23.739Z,94958.00
2023-04-17T09:25:23.752Z,94954.00
2023-04-17T09:26:23.803Z,94954.00
2023-04-17T09:27:23.753Z,94956.00
2023-04-17T09:28:23.674Z,94954.00
2023-04-17T09:29:23.710Z,94956.00
2023-04-17T09:30:23.829Z,94954.00
2023-04-17T09:31:23.905Z,94954.00
2023-04-17T09:32:23.666Z,94952.00
2023-04-17T09:33:23.706Z,94952.00
2023-04-17T09:34:24.351Z,94954.00
2023-04-17T09:35:23.706Z,94948.00
2023-04-17T09:36:23.642Z,94948.00
2023-04-17T09:37:23.653Z,94950.00
2023-04-17T09:38:23.620Z,94948.00
2023-04-17T09:39:26.359Z,94952.00
2023-04-17T09:40:23.957Z,94950.00
2023-04-17T09:41:23.619Z,94950.00
2023-04-17T09:42:24.344Z,94948.00
2023-04-17T09:43:23.583Z,94948.00
2023-04-17T09:44:23.615Z,94952.00
2023-04-17T09:45:25.476Z,94952.00
2023-04-17T09:46:23.631Z,94952.00
2023-04-17T09:47:23.627Z,94948.00
2023-04-17T09:48:23.542Z,94952.00
2023-04-17T09:49:23.552Z,94948.00
2023-04-17T09:50:23.877Z,94950.00
2023-04-17T09:51:23.627Z,94950.00
2023-04-17T09:52:23.527Z,94950.00
2023-04-17T09:53:23.523Z,94950.00
2023-04-17T09:54:23.546Z,94948.00
2023-04-17T09:55:23.510Z,94952.00
2023-04-17T09:56:23.464Z,94950.00
2023-04-17T09:57:23.537Z,94948.00
2023-04-17T09:58:23.580Z,94952.00
2023-04-17T09:59:23.549Z,94948.00
2023-04-17T10:00:24.407Z,94948.00
2023-04-17T10:01:23.793Z,94946.00
2023-04-17T10:02:23.691Z,94946.00
2023-04-17T10:03:23.800Z,94948.00
2023-04-17T10:04:23.763Z,94948.00
2023-04-17T10:05:23.745Z,94948.00
2023-04-17T10:06:23.848Z,94946.00
2023-04-17T10:07:24.357Z,94946.00
2023-04-17T10:08:23.795Z,94944.00
2023-04-17T10:09:24.023Z,94946.00
2023-04-17T10:10:23.826Z,94942.00
2023-04-17T10:11:23.857Z,94940.00
2023-04-17T10:12:23.869Z,94944.00
2023-04-17T10:13:24.344Z,94942.00
2023-04-17T10:14:24.819Z,94939.00
2023-04-17T10:15:24.043Z,94939.00
2023-04-17T10:16:24.058Z,94937.00
2023-04-17T10:17:25.011Z,94937.00
2023-04-17T10:18:24.763Z,94937.00
2023-04-17T10:19:24.148Z,94935.00
2023-04-17T10:20:24.893Z,94933.00
2023-04-17T10:21:24.260Z,94935.00
2023-04-17T10:22:24.451Z,94933.00
2023-04-17T10:23:24.424Z,94937.00
2023-04-17T10:24:24.249Z,94935.00
2023-04-17T10:25:24.879Z,94937.00
2023-04-17T10:26:24.361Z,94937.00
2023-04-17T10:27:24.472Z,94935.00
2023-04-17T10:28:24.938Z,94933.00
2023-04-17T10:29:24.537Z,94931.00
2023-04-17T10:30:24.545Z,94931.00
2023-04-17T10:31:25.446Z,94933.00
2023-04-17T10:32:24.621Z,94931.00
2023-04-17T10:33:25.074Z,94931.00
2023-04-17T10:34:25.374Z,94931.00
2023-04-17T10:35:24.655Z,94929.00
2023-04-17T10:36:24.892Z,94931.00
2023-04-17T10:37:24.917Z,94929.00
2023-04-17T10:38:24.777Z,94927.00
2023-04-17T10:39:24.888Z,94931.00
2023-04-17T10:40:24.896Z,94927.00
2023-04-17T10:41:25.993Z,94929.00
2023-04-17T10:42:24.943Z,94925.00
2023-04-17T10:43:28.360Z,94923.00
2023-04-17T10:44:24.983Z,94923.00
2023-04-17T10:45:25.027Z,94925.00
2023-04-17T10:46:25.425Z,94925.00
2023-04-17T10:47:25.921Z,94927.00
2023-04-17T10:48:24.966Z,94925.00
2023-04-17T10:49:25.005Z,94917.00
2023-04-17T10:50:25.012Z,94923.00
2023-04-17T10:51:25.883Z,94921.00
2023-04-17T10:52:26.006Z,94921.00
2023-04-17T10:53:25.455Z,94921.00
2023-04-17T10:54:24.882Z,94919.00
2023-04-17T10:55:24.918Z,94919.00
2023-04-17T10:56:24.942Z,94919.00
2023-04-17T10:57:24.856Z,94917.00
2023-04-17T10:58:31.689Z,94915.00
2023-04-17T10:59:25.884Z,94917.00
2023-04-17T11:00:24.868Z,94919.00
2023-04-17T11:01:27.526Z,94917.00
2023-04-17T11:02:24.888Z,94915.00
2023-04-17T11:03:25.445Z,94919.00
2023-04-17T11:04:24.866Z,94919.00
2023-04-17T11:05:24.792Z,94917.00
2023-04-17T11:06:24.856Z,94917.00
2023-04-17T11:07:24.825Z,94915.00
2023-04-17T11:08:24.813Z,94913.00
2023-04-17T11:09:24.882Z,94913.00
2023-04-17T11:10:24.837Z,94911.00
2023-04-17T11:11:40.010Z,94911.00
2023-04-17T11:12:25.884Z,94913.00
2023-04-17T11:13:25.399Z,94911.00
2023-04-17T11:14:24.945Z,94911.00
2023-04-17T11:15:24.950Z,94909.00
2023-04-17T11:16:24.971Z,94913.00
2023-04-17T11:17:25.031Z,94913.00
2023-04-17T11:18:25.053Z,94913.00
2023-04-17T11:19:25.142Z,94915.00
2023-04-17T11:20:25.144Z,94913.00
2023-04-17T11:21:25.373Z,94903.00
2023-04-17T11:22:25.162Z,94905.00
2023-04-17T11:23:25.539Z,94909.00
2023-04-17T11:24:25.266Z,94905.00
2023-04-17T11:25:25.235Z,94905.00
2023-04-17T11:26:25.239Z,94907.00
2023-04-17T11:27:25.266Z,94909.00
2023-04-17T11:28:25.277Z,94905.00
2023-04-17T11:29:25.342Z,94905.00
2023-04-17T11:30:25.378Z,94905.00
2023-04-17T11:31:25.442Z,94909.00
2023-04-17T11:32:25.470Z,94911.00
2023-04-17T11:33:25.464Z,94907.00
2023-04-17T11:34:25.613Z,94907.00
2023-04-17T11:35:25.515Z,94909.00
2023-04-17T11:36:25.517Z,94909.00
2023-04-17T11:37:25.562Z,94907.00
2023-04-17T11:38:25.574Z,94909.00
2023-04-17T11:39:25.641Z,94909.00
2023-04-17T11:40:25.673Z,94909.00
2023-04-17T11:41:25.736Z,94907.00
2023-04-17T11:42:25.749Z,94909.00
2023-04-17T11:43:25.846Z,94911.00
2023-04-17T11:44:25.849Z,94913.00